Time;durP1;ratioP1;P1;durP2;ratioP2;P2;SDS_P1;SDS_P2;PMS_P1;PMS_P2;Temp;Humidity;BMP_temperature;BMP_pressure;BME280_temperature;BME280_humidity;BME280_pressure;Samples;Min_cycle;Max_cycle;Signal;HPM_P1;HPM_P2
2022/10/24 00:06:00;;;;;;;48.58;31.65;;;;;;;6.67;100.00;99092.58;4299674;81;21054;-84
2022/10/24 00:12:04;;;;;;;43.65;27.82;;;;;;;6.70;100.00;99088.39;4301118;81;21014;-83
2022/10/24 00:18:06;;;;;;;51.42;31.85;;;;;;;6.70;100.00;99081.59;4213310;83;21046;-83
2022/10/24 00:24:08;;;;;;;40.83;25.35;;;;;;;6.63;100.00;99068.58;4177037;83;21566;-83
2022/10/24 00:30:10;;;;;;;46.10;26.90;;;;;;;6.53;100.00;99072.38;4210955;82;20999;-85
2022/10/24 00:36:16;;;;;;;42.90;25.10;;;;;;;6.48;100.00;99079.41;4213309;83;21057;-84
2022/10/24 00:42:17;;;;;;;41.50;26.75;;;;;;;6.61;100.00;99084.45;4186317;82;21080;-84
2022/10/24 00:48:36;;;;;;;40.45;24.25;;;;;;;6.53;100.00;99061.49;4216870;82;21546;-83
2022/10/24 00:54:40;;;;;;;45.90;27.70;;;;;;;6.49;100.00;99074.19;4211375;82;21055;-83
2022/10/24 01:00:41;;;;;;;32.45;22.48;;;;;;;6.54;100.00;99067.95;4255161;82;21007;-84
2022/10/24 01:07:21;;;;;;;38.50;25.15;;;;;;;6.64;100.00;99071.51;4296492;81;22292;-83
2022/10/24 01:13:30;;;;;;;42.62;27.40;;;;;;;6.59;100.00;99070.98;4297962;81;21075;-82
2022/10/24 01:20:03;;;;;;;43.68;27.62;;;;;;;6.53;100.00;99069.65;4297696;81;20971;-84
2022/10/24 01:26:15;;;;;;;45.58;28.60;;;;;;;6.52;100.00;99066.69;4262459;81;21654;-86
2022/10/24 01:32:49;;;;;;;43.05;28.55;;;;;;;6.45;100.00;99051.55;4191909;82;21043;-84
2022/10/24 01:38:56;;;;;;;38.75;25.08;;;;;;;6.42;100.00;99048.16;4205857;82;21437;-84
2022/10/24 01:45:03;;;;;;;37.40;23.77;;;;;;;6.37;100.00;99046.48;4196175;82;21604;-85
2022/10/24 01:51:08;;;;;;;35.17;23.98;;;;;;;6.40;100.00;99041.13;4199556;82;21653;-83
2022/10/24 01:57:09;;;;;;;35.35;22.02;;;;;;;6.49;100.00;99034.75;4255002;81;21019;-83
2022/10/24 02:03:37;;;;;;;34.53;22.95;;;;;;;6.53;100.00;99038.38;4241175;81;20955;-84
2022/10/24 02:09:42;;;;;;;34.25;21.68;;;;;;;6.56;100.00;99027.60;4114850;81;21443;-85
2022/10/24 02:15:51;;;;;;;30.12;19.82;;;;;;;6.51;100.00;99031.13;4227423;82;21059;-83
2022/10/24 02:22:16;;;;;;;36.80;22.48;;;;;;;6.57;100.00;99047.41;4219326;81;21027;-84
2022/10/24 02:28:25;;;;;;;33.88;21.37;;;;;;;6.62;100.00;99030.28;4255797;81;70001;-83
2022/10/24 02:34:30;;;;;;;29.35;19.98;;;;;;;6.54;100.00;99020.91;4310809;81;21405;-84
2022/10/24 02:40:33;;;;;;;31.77;18.97;;;;;;;6.47;100.00;99024.81;4310041;81;21475;-84
2022/10/24 02:46:36;;;;;;;26.30;16.80;;;;;;;6.48;100.00;99023.66;4302623;81;21897;-84
2022/10/24 02:52:40;;;;;;;32.13;18.57;;;;;;;6.54;100.00;99031.79;4319916;80;21041;-84
2022/10/24 02:58:42;;;;;;;31.97;18.65;;;;;;;6.64;100.00;99031.30;4296256;80;21023;-84
2022/10/24 03:04:43;;;;;;;35.40;19.48;;;;;;;6.62;100.00;99026.77;4305152;79;21963;-83
2022/10/24 03:10:44;;;;;;;27.48;16.55;;;;;;;6.59;100.00;99013.87;4307457;80;21014;-84
2022/10/24 03:16:46;;;;;;;33.33;18.82;;;;;;;6.59;100.00;99020.66;4293920;80;21407;-84
2022/10/24 03:22:48;;;;;;;34.78;20.75;;;;;;;6.57;100.00;99020.21;4204804;83;21015;-83
2022/10/24 03:28:49;;;;;;;28.20;17.67;;;;;;;6.64;100.00;99016.34;4266896;82;21059;-83
2022/10/24 03:34:50;;;;;;;30.85;19.52;;;;;;;6.69;100.00;99016.86;4266364;81;21483;-84
2022/10/24 03:40:53;;;;;;;29.77;19.17;;;;;;;6.62;100.00;99001.73;4256262;81;21523;-84
2022/10/24 03:46:54;;;;;;;27.05;17.55;;;;;;;6.45;100.00;98985.73;4266050;82;21022;-86
2022/10/24 03:52:56;;;;;;;28.42;17.92;;;;;;;6.43;100.00;98995.35;4265403;82;21042;-84
2022/10/24 03:58:57;;;;;;;26.52;18.20;;;;;;;6.42;100.00;99009.54;4260775;82;21043;-83
2022/10/24 04:04:59;;;;;;;31.30;19.20;;;;;;;6.48;100.00;99017.66;4263885;81;21035;-84
2022/10/24 04:11:00;;;;;;;29.00;20.08;;;;;;;6.57;100.00;99011.50;4206889;82;21864;-84
2022/10/24 04:17:01;;;;;;;36.55;24.05;;;;;;;6.72;100.00;99014.80;4208507;82;21597;-85
2022/10/24 04:23:03;;;;;;;42.03;25.12;;;;;;;6.77;100.00;99007.75;4200146;83;21024;-84
2022/10/24 04:29:05;;;;;;;36.85;24.30;;;;;;;6.88;100.00;98995.21;4343271;80;20967;-83
2022/10/24 04:35:07;;;;;;;34.83;21.68;;;;;;;6.85;100.00;98997.83;4336516;80;20937;-84
2022/10/24 04:41:09;;;;;;;34.27;23.32;;;;;;;6.86;100.00;99019.84;4355788;79;21045;-84
2022/10/24 04:47:13;;;;;;;31.35;22.52;;;;;;;6.93;100.00;99020.01;4372013;80;22012;-84
2022/10/24 04:53:14;;;;;;;36.98;24.30;;;;;;;6.87;100.00;99027.66;4369429;80;21988;-83
2022/10/24 04:59:16;;;;;;;39.38;24.67;;;;;;;6.99;100.00;99026.77;4354763;80;21018;-84
2022/10/24 05:05:20;;;;;;;31.52;22.17;;;;;;;7.07;100.00;99023.89;4359715;80;20979;-84
2022/10/24 05:11:21;;;;;;;36.83;24.90;;;;;;;7.05;100.00;99009.83;4357429;79;22246;-84
2022/10/24 05:17:25;;;;;;;39.03;24.40;;;;;;;7.10;100.00;98998.69;4337953;80;20995;-84
2022/10/24 05:23:27;;;;;;;42.55;25.97;;;;;;;7.11;100.00;98996.17;4366181;79;21025;-84
2022/10/24 05:29:30;;;;;;;30.02;21.15;;;;;;;7.14;100.00;98996.06;4312218;79;21101;-85
2022/10/24 05:35:31;;;;;;;31.80;21.30;;;;;;;7.17;100.00;99002.92;4311796;81;20990;-83
2022/10/24 05:41:32;;;;;;;31.77;21.62;;;;;;;7.26;100.00;99002.20;4303317;81;21618;-84
2022/10/24 05:47:33;;;;;;;29.92;19.90;;;;;;;7.32;100.00;99021.77;4254897;82;21011;-84
2022/10/24 05:53:36;;;;;;;28.05;18.15;;;;;;;7.37;100.00;99010.61;4223825;83;21057;-83
2022/10/24 05:59:38;;;;;;;32.55;19.20;;;;;;;7.43;100.00;99005.11;4204685;82;20999;-84
2022/10/24 06:05:39;;;;;;;28.80;20.10;;;;;;;7.40;100.00;99007.98;4206879;82;21004;-85
2022/10/24 06:11:41;;;;;;;30.55;20.60;;;;;;;7.50;100.00;99008.02;4204631;82;20982;-84
2022/10/24 06:17:42;;;;;;;32.28;22.02;;;;;;;7.58;100.00;99013.84;4207600;83;21003;-84
2022/10/24 06:23:44;;;;;;;30.97;19.10;;;;;;;7.65;100.00;99024.89;4201018;82;21010;-85
2022/10/24 06:29:45;;;;;;;31.48;20.48;;;;;;;7.71;100.00;99024.27;4178489;83;21002;-84
2022/10/24 06:35:47;;;;;;;36.75;21.33;;;;;;;7.76;100.00;99028.09;4319384;80;20983;-84
2022/10/24 06:41:48;;;;;;;29.05;19.60;;;;;;;7.83;100.00;99035.05;4306734;80;21026;-84
2022/10/24 06:47:51;;;;;;;41.50;23.02;;;;;;;7.94;100.00;99051.06;4304168;80;21938;-85
2022/10/24 06:53:53;;;;;;;45.00;30.60;;;;;;;8.10;100.00;99039.34;4314236;80;21132;-84
2022/10/24 06:59:54;;;;;;;51.83;33.75;;;;;;;8.26;100.00;99040.87;4317465;80;20951;-84
2022/10/24 07:05:57;;;;;;;45.63;29.45;;;;;;;8.47;100.00;99047.34;4210703;82;20994;-84
2022/10/24 07:11:58;;;;;;;56.20;36.33;;;;;;;8.87;100.00;99043.06;4298024;80;20978;-86
2022/10/24 07:18:00;;;;;;;57.93;35.00;;;;;;;9.37;100.00;99050.17;4315951;80;20995;-84
2022/10/24 07:24:01;;;;;;;45.03;30.77;;;;;;;9.50;100.00;99059.20;4311723;80;21028;-84
2022/10/24 07:30:07;;;;;;;40.52;27.58;;;;;;;9.63;100.00;99053.53;4311163;80;21011;-84
2022/10/24 07:36:08;;;;;;;48.05;27.13;;;;;;;9.78;100.00;99049.84;4210318;82;21976;-84
2022/10/24 07:42:12;;;;;;;51.77;30.08;;;;;;;9.93;100.00;99044.81;4199513;83;21028;-85
2022/10/24 07:48:13;;;;;;;58.75;30.20;;;;;;;10.09;100.00;99033.92;4257875;82;21857;-84
2022/10/24 07:54:16;;;;;;;50.10;29.52;;;;;;;10.54;100.00;99032.34;4218663;82;21604;-85
2022/10/24 08:00:17;;;;;;;47.78;24.35;;;;;;;11.20;100.00;99022.48;4269267;81;21002;-85
2022/10/24 08:06:24;;;;;;;38.48;23.45;;;;;;;11.79;100.00;99009.23;4260852;82;21067;-85
2022/10/24 08:12:25;;;;;;;36.60;24.52;;;;;;;12.55;100.00;99011.39;4268899;81;20992;-84
2022/10/24 08:18:29;;;;;;;46.48;23.42;;;;;;;13.39;100.00;99030.05;4250166;82;21022;-85
2022/10/24 08:24:32;;;;;;;32.25;20.70;;;;;;;14.16;100.00;99033.48;4246190;82;21515;-86
2022/10/24 08:30:34;;;;;;;31.57;20.23;;;;;;;15.15;100.00;99035.80;4207673;82;31205;-85
2022/10/24 08:36:37;;;;;;;38.48;22.62;;;;;;;16.03;100.00;99016.56;4205648;82;21031;-86
2022/10/24 08:42:39;;;;;;;27.42;18.73;;;;;;;16.46;100.00;99011.39;4246549;81;21014;-86
2022/10/24 08:48:50;;;;;;;28.15;19.55;;;;;;;17.16;100.00;99007.66;4243361;81;20992;-85
2022/10/24 08:54:53;;;;;;;28.85;18.07;;;;;;;17.62;100.00;99004.95;4220759;81;21091;-85
2022/10/24 09:01:09;;;;;;;30.02;17.95;;;;;;;18.21;100.00;98963.52;4245851;81;20996;-83
2022/10/24 09:07:26;;;;;;;30.65;19.80;;;;;;;18.39;100.00;98961.18;4252781;81;21944;-84
2022/10/24 09:13:37;;;;;;;25.70;16.55;;;;;;;18.81;100.00;98984.45;4233137;81;20994;-84
2022/10/24 09:19:38;;;;;;;25.40;17.50;;;;;;;18.91;100.00;98962.63;4247108;81;20976;-83
2022/10/24 09:25:45;;;;;;;28.77;16.73;;;;;;;18.65;98.79;98961.63;4233749;81;21604;-84
2022/10/24 09:32:11;;;;;;;26.27;14.93;;;;;;;18.52;99.35;98959.33;4217546;82;21018;-83
2022/10/24 09:38:35;;;;;;;22.20;12.63;;;;;;;18.92;100.00;98945.55;4135160;84;21023;-84
2022/10/24 09:44:40;;;;;;;22.80;14.07;;;;;;;19.13;99.15;98943.67;4213765;82;21014;-84
2022/10/24 09:50:43;;;;;;;28.73;17.75;;;;;;;18.88;97.13;98962.09;4216156;82;20953;-83
2022/10/24 09:56:50;;;;;;;23.27;13.68;;;;;;;18.55;96.96;98977.28;4216143;82;21026;-84
2022/10/24 10:03:18;;;;;;;14.03;9.58;;;;;;;18.49;96.87;98962.37;4219487;82;21101;-86
2022/10/24 10:09:30;;;;;;;12.15;8.65;;;;;;;18.67;97.23;98957.80;4218904;82;21003;-87
2022/10/24 10:15:37;;;;;;;13.22;8.30;;;;;;;18.71;96.14;98962.68;4216563;82;21365;-86
2022/10/24 10:22:00;;;;;;;;;;;;;;;18.60;95.98;98944.11;4163788;82;21047;-83
2022/10/24 10:28:02;;;;;;;16.05;7.95;;;;;;;18.57;94.44;98948.50;4230109;81;20113;-86
2022/10/24 10:34:30;;;;;;;15.10;9.03;;;;;;;18.43;94.99;98945.28;4261284;81;21022;-86
2022/10/24 10:40:44;;;;;;;13.88;9.18;;;;;;;18.41;95.54;98958.17;4223166;82;21024;-86
2022/10/24 10:46:53;;;;;;;13.85;9.15;;;;;;;18.34;94.71;98973.52;4056455;85;21044;-86
2022/10/24 10:53:42;;;;;;;15.43;10.98;;;;;;;18.22;95.14;98954.77;4108736;84;21540;-86
2022/10/24 11:00:10;;;;;;;15.23;10.35;;;;;;;18.21;95.21;98955.20;4031184;84;21076;-86
2022/10/24 11:06:35;;;;;;;14.85;9.55;;;;;;;18.19;95.17;98963.15;4248959;81;20990;-86
2022/10/24 11:12:43;;;;;;;20.17;11.75;;;;;;;18.20;95.12;98964.70;4269470;81;21012;-86
2022/10/24 11:18:53;;;;;;;18.00;10.78;;;;;;;18.21;95.14;98951.81;4259546;81;21039;-86
2022/10/24 11:25:22;;;;;;;16.48;10.60;;;;;;;18.42;94.73;98951.41;4283855;80;21034;-85
2022/10/24 11:31:43;;;;;;;18.62;11.18;;;;;;;18.71;94.07;98955.75;4217413;82;21004;-84
2022/10/24 11:38:03;;;;;;;20.43;11.43;;;;;;;18.99;93.42;98968.19;4262822;81;21920;-85
2022/10/24 11:44:32;;;;;;;21.45;10.55;;;;;;;19.11;92.83;98962.73;4256863;81;21112;-86
2022/10/24 11:50:46;;;;;;;21.25;9.28;;;;;;;19.17;92.65;98959.62;4256707;81;21568;-85
2022/10/24 11:57:05;;;;;;;15.00;8.63;;;;;;;19.24;92.82;98962.23;4288754;81;21510;-86
2022/10/24 12:03:24;;;;;;;18.12;7.55;;;;;;;19.28;91.64;98964.33;4271130;81;21043;-85
2022/10/24 12:10:19;;;;;;;13.20;7.22;;;;;;;19.37;91.25;98957.56;4261366;81;20963;-86
2022/10/24 12:16:39;;;;;;;12.35;6.20;;;;;;;19.42;91.00;98956.28;4255362;81;21962;-85
2022/10/24 12:22:43;;;;;;;15.48;5.78;;;;;;;19.37;91.07;98953.40;4223253;82;20992;-85
2022/10/24 12:29:05;;;;;;;11.88;4.80;;;;;;;19.34;90.66;98938.25;4215324;82;21044;-84
2022/10/24 12:35:40;;;;;;;10.98;5.70;;;;;;;19.37;90.33;98934.59;4248547;81;21024;-85
2022/10/24 12:41:42;;;;;;;11.03;5.70;;;;;;;19.42;89.55;98925.13;4003722;86;21023;-86
2022/10/24 12:47:55;;;;;;;9.95;5.15;;;;;;;19.53;89.08;98913.14;4121557;81;21006;-86
2022/10/24 12:54:17;;;;;;;11.08;5.25;;;;;;;19.64;88.25;98900.35;4263811;81;21063;-85
2022/10/24 13:00:40;;;;;;;;;;;;;;;;;;;;;
2022/10/24 13:07:03;;;;;;;11.73;5.80;;;;;;;19.63;86.69;98889.09;4225409;81;22054;-86
2022/10/24 13:13:47;;;;;;;10.10;5.13;;;;;;;19.53;86.34;98897.11;4245890;81;21557;-85
2022/10/24 13:27:16;;;;;;;13.80;6.40;;;;;;;19.24;86.11;98895.63;4208887;84;21068;-85
2022/10/24 13:33:43;;;;;;;13.55;7.30;;;;;;;19.15;86.03;98903.80;4237978;82;21004;-85
2022/10/24 13:39:49;;;;;;;;;;;;;;;19.07;86.39;98907.95;4252484;82;21500;-85
2022/10/24 13:46:07;;;;;;;13.38;6.37;;;;;;;18.98;86.33;98906.37;4246561;82;20128;-84
2022/10/24 13:52:23;;;;;;;9.85;4.20;;;;;;;18.89;86.55;98903.42;4238813;82;20982;-85
2022/10/24 13:58:25;;;;;;;7.17;2.93;;;;;;;18.81;86.31;98904.03;4236746;82;21054;-83
2022/10/24 14:04:33;;;;;;;7.65;2.70;;;;;;;18.81;85.25;98913.12;4248810;82;21090;-85
2022/10/24 14:10:38;;;;;;;5.95;2.45;;;;;;;18.76;84.92;98903.16;4242541;81;21008;-85
2022/10/24 14:16:41;;;;;;;9.73;3.20;;;;;;;18.66;84.37;98902.98;4208112;82;20971;-85
2022/10/24 14:22:50;;;;;;;6.33;2.52;;;;;;;18.50;84.56;98904.33;4211895;83;20988;-85
2022/10/24 14:28:59;;;;;;;7.80;3.25;;;;;;;18.35;84.82;98902.26;4203501;82;21580;-86
2022/10/24 14:35:01;;;;;;;11.57;3.35;;;;;;;18.22;84.63;98901.34;4202973;82;21520;-85
2022/10/24 14:41:04;;;;;;;9.33;2.83;;;;;;;18.11;84.82;98902.17;4202939;82;21589;-85
2022/10/24 14:47:39;;;;;;;7.22;3.70;;;;;;;17.93;85.16;98904.52;4104190;84;21600;-85
2022/10/24 14:53:47;;;;;;;8.43;3.58;;;;;;;17.67;85.56;98915.09;4205356;83;20965;-85
2022/10/24 14:59:58;;;;;;;9.60;4.03;;;;;;;17.50;85.99;98918.97;4207952;83;21054;-85
2022/10/24 15:06:12;;;;;;;8.58;4.15;;;;;;;17.42;86.21;98926.59;4203531;82;20976;-85
2022/10/24 15:12:15;;;;;;;10.95;4.03;;;;;;;17.32;86.57;98933.70;4207444;82;21009;-85
2022/10/24 15:18:36;;;;;;;7.58;4.67;;;;;;;17.15;86.83;98932.17;4199020;82;21055;-84
2022/10/24 15:24:38;;;;;;;11.83;4.75;;;;;;;17.01;87.31;98933.00;4242353;82;21004;-85
2022/10/24 15:31:37;;;;;;;10.65;5.62;;;;;;;16.79;87.43;98934.52;4176825;82;21006;-84
2022/10/24 15:37:39;;;;;;;11.90;6.03;;;;;;;16.49;87.92;98935.34;4240738;81;21469;-85
2022/10/24 15:43:40;;;;;;;17.65;6.85;;;;;;;16.36;88.74;98923.85;4246902;81;21559;-84
2022/10/24 15:49:42;;;;;;;12.70;6.15;;;;;;;16.28;89.19;98931.45;4249162;81;21579;-85
2022/10/24 15:55:47;;;;;;;19.32;8.23;;;;;;;16.10;89.65;98936.40;4235281;81;21015;-85
2022/10/24 16:01:59;;;;;;;15.05;7.72;;;;;;;15.97;90.09;98937.36;4265779;81;21011;-84
2022/10/24 16:08:00;;;;;;;14.93;7.62;;;;;;;15.79;90.22;98928.47;4218116;81;21043;-85
2022/10/24 16:14:03;;;;;;;18.55;8.05;;;;;;;15.56;90.77;98932.67;4233921;81;21050;-85
2022/10/24 16:20:05;;;;;;;14.87;8.30;;;;;;;15.38;91.20;98934.80;4232407;81;21030;-85
2022/10/24 16:26:06;;;;;;;17.55;9.23;;;;;;;15.21;91.61;98940.43;4228948;81;21003;-85
2022/10/24 16:32:10;;;;;;;15.13;9.55;;;;;;;15.06;92.01;98940.37;4252748;81;21134;-85
2022/10/24 16:38:13;;;;;;;23.15;9.88;;;;;;;14.89;92.64;98947.56;4252729;81;21509;-85
2022/10/24 16:44:19;;;;;;;21.48;10.63;;;;;;;14.79;93.14;98947.05;4147500;80;9999737;-85
2022/10/24 16:50:27;;;;;;;23.77;11.07;;;;;;;14.64;93.13;98948.34;4274773;81;20988;-85
2022/10/24 16:56:31;;;;;;;19.40;9.83;;;;;;;14.47;93.79;98960.22;4266225;80;21020;-85
2022/10/24 17:02:32;;;;;;;18.23;10.25;;;;;;;14.23;93.96;98948.70;4258004;81;21012;-84
2022/10/24 17:08:34;;;;;;;24.75;11.73;;;;;;;14.09;94.66;98955.65;4262091;81;21562;-85
2022/10/24 17:14:36;;;;;;;25.35;12.73;;;;;;;13.90;95.04;98941.76;4248357;81;21935;-85
2022/10/24 17:20:43;;;;;;;30.65;13.95;;;;;;;13.78;95.74;98947.67;4248307;81;20983;-85
2022/10/24 17:26:45;;;;;;;26.77;15.13;;;;;;;13.65;96.14;98939.66;4250386;81;21017;-85
2022/10/24 17:32:47;;;;;;;25.72;15.38;;;;;;;13.56;96.87;98933.00;4275723;81;21038;-84
2022/10/24 17:39:02;;;;;;;32.08;17.42;;;;;;;13.52;97.40;98937.12;4282905;81;20993;-85
2022/10/24 17:45:05;;;;;;;30.90;14.05;;;;;;;13.45;97.71;98940.48;4265795;81;21486;-85
2022/10/24 17:51:10;;;;;;;24.35;15.28;;;;;;;13.36;97.98;98933.23;4272072;81;21008;-85
2022/10/24 17:57:15;;;;;;;28.67;14.00;;;;;;;13.29;98.42;98927.14;4274588;80;20981;-85
2022/10/24 18:03:24;;;;;;;29.72;16.32;;;;;;;13.25;98.75;98922.83;4270312;81;20999;-85
2022/10/24 18:09:28;;;;;;;26.75;15.40;;;;;;;13.12;98.91;98916.95;4276331;81;21011;-85
2022/10/24 18:15:30;;;;;;;26.82;14.87;;;;;;;13.07;99.49;98909.67;4254078;81;20991;-85
2022/10/24 18:21:32;;;;;;;30.35;18.25;;;;;;;13.05;99.95;98917.52;4275055;81;22020;-85
2022/10/24 18:27:36;;;;;;;41.00;23.02;;;;;;;12.91;99.75;98908.66;4289872;81;20984;-85
2022/10/24 18:33:40;;;;;;;45.95;23.95;;;;;;;12.78;99.99;98923.94;4251715;81;20984;-86
2022/10/24 18:39:42;;;;;;;34.15;19.90;;;;;;;12.68;100.00;98921.19;4243152;81;21031;-85
2022/10/24 18:45:44;;;;;;;37.00;22.75;;;;;;;12.61;100.00;98917.27;4242943;81;20948;-85
2022/10/24 18:52:30;;;;;;;36.53;21.82;;;;;;;12.57;100.00;98913.70;4241036;81;20964;-85
2022/10/24 18:58:32;;;;;;;37.40;22.48;;;;;;;12.57;100.00;98905.47;4242566;81;21936;-86
2022/10/24 19:04:39;;;;;;;34.50;18.85;;;;;;;12.56;100.00;98901.16;4281805;81;20988;-85
2022/10/24 19:10:42;;;;;;;32.53;19.90;;;;;;;12.48;100.00;98905.07;4252782;81;21614;-85
2022/10/24 19:16:50;;;;;;;31.37;17.42;;;;;;;12.46;100.00;98894.29;4118828;81;9999727;-86
2022/10/24 19:22:52;;;;;;;29.95;17.45;;;;;;;12.40;100.00;98887.01;4241757;81;21014;-84
2022/10/24 19:28:54;;;;;;;32.48;19.23;;;;;;;12.32;100.00;98879.16;4253115;81;21987;-86
2022/10/24 19:34:56;;;;;;;26.35;16.10;;;;;;;12.12;100.00;98882.82;4228284;82;21797;-84
2022/10/24 19:40:58;;;;;;;32.93;18.07;;;;;;;12.20;100.00;98894.02;4266448;82;21007;-85
2022/10/24 19:47:02;;;;;;;26.40;15.05;;;;;;;12.17;100.00;98905.77;4238153;81;21610;-84
2022/10/24 19:53:05;;;;;;;30.77;17.70;;;;;;;12.22;100.00;98913.64;4231457;82;20996;-85
2022/10/24 19:59:11;;;;;;;35.65;20.55;;;;;;;12.25;100.00;98910.69;4236563;82;20972;-85
2022/10/24 20:05:10;;;;;;;41.33;22.70;;;;;;;12.19;100.00;98908.92;4247969;81;21003;-84
2022/10/24 20:11:14;;;;;;;39.20;22.35;;;;;;;12.30;100.00;98907.58;4256614;82;20953;-84
2022/10/24 20:17:19;;;;;;;28.12;18.98;;;;;;;12.36;100.00;98916.42;4249011;80;21666;-85
2022/10/24 20:23:31;;;;;;;37.00;18.82;;;;;;;12.44;100.00;98929.00;4254829;81;21006;-84
2022/10/24 20:29:35;;;;;;;35.98;21.68;;;;;;;12.50;100.00;98925.27;4254388;81;21581;-85
2022/10/24 20:35:36;;;;;;;37.08;22.93;;;;;;;12.60;100.00;98920.40;4252666;81;20980;-84
2022/10/24 20:41:38;;;;;;;36.73;22.07;;;;;;;12.64;100.00;98922.55;4264884;81;21019;-85
2022/10/24 20:47:42;;;;;;;44.50;23.98;;;;;;;12.69;100.00;98935.91;4182473;83;21971;-85
2022/10/24 20:53:44;;;;;;;38.38;23.60;;;;;;;12.73;100.00;98932.59;4212207;82;21587;-84
2022/10/24 20:59:45;;;;;;;48.00;27.32;;;;;;;12.76;100.00;98935.93;4202078;82;21110;-84
2022/10/24 21:05:46;;;;;;;49.03;29.57;;;;;;;12.77;100.00;98938.86;4264128;81;20976;-86
2022/10/24 21:11:57;;;;;;;47.85;29.95;;;;;;;12.72;100.00;98939.84;4245282;81;21031;-85
2022/10/24 21:17:58;;;;;;;42.98;26.33;;;;;;;12.78;100.00;98941.03;4254670;80;21069;-85
2022/10/24 21:24:27;;;;;;;41.42;27.37;;;;;;;12.78;100.00;98936.91;4254423;81;21011;-85
2022/10/24 21:30:32;;;;;;;47.25;29.85;;;;;;;12.75;100.00;98948.08;4239851;81;21094;-85
2022/10/24 21:36:52;;;;;;;53.45;30.35;;;;;;;12.75;100.00;98950.82;4292769;81;21023;-85
2022/10/24 21:43:09;;;;;;;52.33;30.82;;;;;;;12.75;100.00;98948.08;4286221;81;20987;-85
2022/10/24 21:49:10;;;;;;;56.70;32.40;;;;;;;12.78;100.00;98949.27;4266220;81;21046;-85
2022/10/24 21:55:11;;;;;;;51.98;32.10;;;;;;;12.77;100.00;98942.98;4291158;81;21631;-85
2022/10/24 22:01:24;;;;;;;52.08;33.13;;;;;;;12.80;100.00;98941.41;4287837;80;21484;-85
2022/10/24 22:07:29;;;;;;;56.10;33.28;;;;;;;12.80;100.00;98949.64;4278153;81;21008;-84
2022/10/24 22:13:31;;;;;;;54.45;31.42;;;;;;;12.80;100.00;98956.52;4283803;81;20999;-85
2022/10/24 22:19:33;;;;;;;48.75;29.70;;;;;;;12.85;100.00;98954.77;4278060;81;21507;-84
2022/10/24 22:25:34;;;;;;;50.78;30.95;;;;;;;12.90;100.00;98962.63;4303117;81;21850;-86
2022/10/24 22:31:36;;;;;;;48.17;30.02;;;;;;;12.90;100.00;98962.05;4296927;81;20997;-85
2022/10/24 22:38:09;;;;;;;49.73;29.98;;;;;;;12.99;100.00;98961.64;4266440;81;21002;-85
2022/10/24 22:51:14;;;;;;;45.30;28.92;;;;;;;13.02;100.00;98967.77;4076104;85;22185;-85
2022/10/24 23:04:26;;;;;;;44.98;27.70;;;;;;;13.08;100.00;98963.44;4091143;85;21860;-85
2022/10/24 23:10:41;;;;;;;47.48;29.05;;;;;;;13.10;100.00;98962.47;4100113;84;21871;-85
2022/10/24 23:17:03;;;;;;;43.73;30.12;;;;;;;13.08;100.00;98966.98;4316851;81;20992;-85
2022/10/24 23:23:06;;;;;;;48.68;29.52;;;;;;;13.11;100.00;98970.93;4279385;81;20994;-85
2022/10/24 23:29:41;;;;;;;45.30;28.32;;;;;;;13.14;100.00;98966.02;4276188;81;20984;-85
2022/10/24 23:36:01;;;;;;;39.90;25.92;;;;;;;13.15;100.00;98952.47;4277427;80;20953;-85
2022/10/24 23:42:27;;;;;;;42.85;27.15;;;;;;;13.17;100.00;98952.87;4233664;81;21002;-84
2022/10/24 23:49:06;;;;;;;41.20;26.85;;;;;;;13.18;100.00;98959.92;4239119;81;21004;-85
2022/10/24 23:55:15;;;;;;;42.23;25.72;;;;;;;13.19;100.00;98947.73;4241888;81;20994;-85
